Tongdao, China
Current Conditions -  °F | °C
As of 2:00 AM on Friday 30 Jan 2015 (Local Time) from ZGKL Reporting Station
Overcast Overcast  
Wind Chill: 34°   Ceiling: 2300
Heat Index: 37°   Visibility: 6mi
Dew Point: 32°   Wind: 4mph
Humidity: 81%   Direction: NA
Pressure: 30.3"   Gusts: NA
Location:  26.17°N, 109.78°E
Report Text: ZGKL 291800Z VRB02MPS 9999 BKN023 OVC046 03/00 Q1026 NOSIG
Loading
Personal Weather Stations






























Interactive Weather Map New forecast layout! Learn more

10-Day Weather Forecast

Advertisements
Track Severe Weather on mobile